sensor_id;sensor_type;location;lat;lon;timestamp;temperature;humidity
26278;DHT22;14000;52.056;8.510;2022-10-26T00:00:26;7.70;99.90
26278;DHT22;14000;52.056;8.510;2022-10-26T00:02:55;7.70;99.90
26278;DHT22;14000;52.056;8.510;2022-10-26T00:05:24;8.30;99.90
26278;DHT22;14000;52.056;8.510;2022-10-26T00:07:50;7.60;99.90
26278;DHT22;14000;52.056;8.510;2022-10-26T00:10:15;7.60;99.90
26278;DHT22;14000;52.056;8.510;2022-10-26T00:12:41;7.60;99.90
26278;DHT22;14000;52.056;8.510;2022-10-26T00:15:07;7.60;99.90
26278;DHT22;14000;52.056;8.510;2022-10-26T00:17:33;7.60;99.90
26278;DHT22;14000;52.056;8.510;2022-10-26T00:19:58;8.20;99.90
26278;DHT22;14000;52.056;8.510;2022-10-26T00:22:25;8.40;99.90
26278;DHT22;14000;52.056;8.510;2022-10-26T00:24:51;7.50;99.90
26278;DHT22;14000;52.056;8.510;2022-10-26T00:27:17;7.40;99.90
26278;DHT22;14000;52.056;8.510;2022-10-26T00:29:43;7.40;99.90
26278;DHT22;14000;52.056;8.510;2022-10-26T00:32:09;7.40;99.90
26278;DHT22;14000;52.056;8.510;2022-10-26T00:34:34;7.40;99.90
26278;DHT22;14000;52.056;8.510;2022-10-26T00:37:00;7.40;99.90
26278;DHT22;14000;52.056;8.510;2022-10-26T00:39:25;8.30;99.90
26278;DHT22;14000;52.056;8.510;2022-10-26T00:41:51;7.40;99.90
26278;DHT22;14000;52.056;8.510;2022-10-26T00:47:20;7.30;99.90
26278;DHT22;14000;52.056;8.510;2022-10-26T00:49:50;7.30;99.90
26278;DHT22;14000;52.056;8.510;2022-10-26T00:52:17;7.30;99.90
26278;DHT22;14000;52.056;8.510;2022-10-26T00:54:44;7.30;99.90
26278;DHT22;14000;52.056;8.510;2022-10-26T00:57:11;7.30;99.90
26278;DHT22;14000;52.056;8.510;2022-10-26T00:59:38;8.10;99.90
26278;DHT22;14000;52.056;8.510;2022-10-26T01:02:03;7.40;99.90
26278;DHT22;14000;52.056;8.510;2022-10-26T01:04:29;7.40;99.90
26278;DHT22;14000;52.056;8.510;2022-10-26T01:06:55;7.40;99.90
26278;DHT22;14000;52.056;8.510;2022-10-26T01:09:20;7.30;99.90
26278;DHT22;14000;52.056;8.510;2022-10-26T01:11:46;7.30;99.90
26278;DHT22;14000;52.056;8.510;2022-10-26T01:14:13;7.70;99.90
26278;DHT22;14000;52.056;8.510;2022-10-26T01:16:44;7.40;99.90
26278;DHT22;14000;52.056;8.510;2022-10-26T01:22:22;7.20;99.90
26278;DHT22;14000;52.056;8.510;2022-10-26T01:27:48;7.20;99.90
26278;DHT22;14000;52.056;8.510;2022-10-26T01:30:25;7.20;99.90
26278;DHT22;14000;52.056;8.510;2022-10-26T01:38:10;7.20;99.90
26278;DHT22;14000;52.056;8.510;2022-10-26T01:40:45;7.20;99.90
26278;DHT22;14000;52.056;8.510;2022-10-26T01:43:14;7.20;99.90
26278;DHT22;14000;52.056;8.510;2022-10-26T01:45:43;7.20;99.90
26278;DHT22;14000;52.056;8.510;2022-10-26T01:48:13;7.20;99.90
26278;DHT22;14000;52.056;8.510;2022-10-26T01:50:43;7.20;99.90
26278;DHT22;14000;52.056;8.510;2022-10-26T01:53:14;7.40;99.90
26278;DHT22;14000;52.056;8.510;2022-10-26T01:55:45;7.20;99.90
26278;DHT22;14000;52.056;8.510;2022-10-26T02:01:36;7.20;99.90
26278;DHT22;14000;52.056;8.510;2022-10-26T02:04:46;7.30;99.90
26278;DHT22;14000;52.056;8.510;2022-10-26T02:14:58;7.30;99.90
26278;DHT22;14000;52.056;8.510;2022-10-26T02:17:34;7.30;99.90
26278;DHT22;14000;52.056;8.510;2022-10-26T02:20:04;7.20;99.90
26278;DHT22;14000;52.056;8.510;2022-10-26T02:22:32;7.20;99.90
26278;DHT22;14000;52.056;8.510;2022-10-26T02:25:01;7.40;99.90
26278;DHT22;14000;52.056;8.510;2022-10-26T02:27:31;7.20;99.90
26278;DHT22;14000;52.056;8.510;2022-10-26T02:30:00;7.20;99.90
26278;DHT22;14000;52.056;8.510;2022-10-26T02:32:30;7.20;99.90
26278;DHT22;14000;52.056;8.510;2022-10-26T02:34:59;7.20;99.90
26278;DHT22;14000;52.056;8.510;2022-10-26T02:37:26;7.20;99.90
26278;DHT22;14000;52.056;8.510;2022-10-26T02:39:54;7.20;99.90
26278;DHT22;14000;52.056;8.510;2022-10-26T02:42:22;7.20;99.90
26278;DHT22;14000;52.056;8.510;2022-10-26T02:44:54;7.20;99.90
26278;DHT22;14000;52.056;8.510;2022-10-26T02:47:23;7.20;99.90
26278;DHT22;14000;52.056;8.510;2022-10-26T02:49:51;7.20;99.90
26278;DHT22;14000;52.056;8.510;2022-10-26T02:55:08;7.20;99.90
26278;DHT22;14000;52.056;8.510;2022-10-26T02:57:37;7.20;99.90
26278;DHT22;14000;52.056;8.510;2022-10-26T03:00:11;7.30;99.90
26278;DHT22;14000;52.056;8.510;2022-10-26T03:02:37;7.20;99.90
26278;DHT22;14000;52.056;8.510;2022-10-26T03:05:22;7.20;99.90
26278;DHT22;14000;52.056;8.510;2022-10-26T03:07:48;7.20;99.90
26278;DHT22;14000;52.056;8.510;2022-10-26T03:10:14;7.20;99.90
26278;DHT22;14000;52.056;8.510;2022-10-26T03:12:40;7.20;99.90
26278;DHT22;14000;52.056;8.510;2022-10-26T03:15:06;7.30;99.90
26278;DHT22;14000;52.056;8.510;2022-10-26T03:17:31;7.20;99.90
26278;DHT22;14000;52.056;8.510;2022-10-26T03:19:57;7.20;99.90
26278;DHT22;14000;52.056;8.510;2022-10-26T03:22:22;7.20;99.90
26278;DHT22;14000;52.056;8.510;2022-10-26T03:24:48;7.20;99.90
26278;DHT22;14000;52.056;8.510;2022-10-26T03:27:14;7.20;99.90
26278;DHT22;14000;52.056;8.510;2022-10-26T03:29:39;7.20;99.90
26278;DHT22;14000;52.056;8.510;2022-10-26T03:32:06;7.20;99.90
26278;DHT22;14000;52.056;8.510;2022-10-26T03:34:31;7.80;99.90
26278;DHT22;14000;52.056;8.510;2022-10-26T03:36:57;7.70;99.90
26278;DHT22;14000;52.056;8.510;2022-10-26T03:39:22;7.80;99.90
26278;DHT22;14000;52.056;8.510;2022-10-26T03:41:48;7.10;99.90
26278;DHT22;14000;52.056;8.510;2022-10-26T03:44:13;7.70;99.90
26278;DHT22;14000;52.056;8.510;2022-10-26T03:46:39;7.10;99.90
26278;DHT22;14000;52.056;8.510;2022-10-26T03:49:05;7.10;99.90
26278;DHT22;14000;52.056;8.510;2022-10-26T03:51:30;7.10;99.90
26278;DHT22;14000;52.056;8.510;2022-10-26T03:53:56;7.00;99.90
26278;DHT22;14000;52.056;8.510;2022-10-26T03:56:21;7.00;99.90
26278;DHT22;14000;52.056;8.510;2022-10-26T03:58:47;7.00;99.90
26278;DHT22;14000;52.056;8.510;2022-10-26T04:01:13;7.00;99.90
26278;DHT22;14000;52.056;8.510;2022-10-26T04:03:38;7.00;99.90
26278;DHT22;14000;52.056;8.510;2022-10-26T04:06:04;7.00;99.90
26278;DHT22;14000;52.056;8.510;2022-10-26T04:08:30;7.00;99.90
26278;DHT22;14000;52.056;8.510;2022-10-26T04:10:56;7.00;99.90
26278;DHT22;14000;52.056;8.510;2022-10-26T04:13:22;7.10;99.90
26278;DHT22;14000;52.056;8.510;2022-10-26T04:15:48;8.30;99.90
26278;DHT22;14000;52.056;8.510;2022-10-26T04:18:13;7.10;99.90
26278;DHT22;14000;52.056;8.510;2022-10-26T04:20:39;7.20;99.90
26278;DHT22;14000;52.056;8.510;2022-10-26T04:23:11;7.20;99.90
26278;DHT22;14000;52.056;8.510;2022-10-26T04:25:37;7.20;99.90
26278;DHT22;14000;52.056;8.510;2022-10-26T04:28:04;7.20;99.90
26278;DHT22;14000;52.056;8.510;2022-10-26T04:30:30;7.20;99.90
26278;DHT22;14000;52.056;8.510;2022-10-26T04:32:56;7.20;99.90
26278;DHT22;14000;52.056;8.510;2022-10-26T04:35:22;7.20;99.90
26278;DHT22;14000;52.056;8.510;2022-10-26T04:37:48;7.20;99.90
26278;DHT22;14000;52.056;8.510;2022-10-26T04:40:14;7.20;99.90
26278;DHT22;14000;52.056;8.510;2022-10-26T04:42:43;7.20;99.90
26278;DHT22;14000;52.056;8.510;2022-10-26T04:45:10;7.20;99.90
26278;DHT22;14000;52.056;8.510;2022-10-26T04:47:36;7.70;99.90
26278;DHT22;14000;52.056;8.510;2022-10-26T04:50:02;7.20;99.90
26278;DHT22;14000;52.056;8.510;2022-10-26T04:52:27;7.20;99.90
26278;DHT22;14000;52.056;8.510;2022-10-26T04:54:53;7.20;99.90
26278;DHT22;14000;52.056;8.510;2022-10-26T04:57:18;7.20;99.90
26278;DHT22;14000;52.056;8.510;2022-10-26T04:59:44;7.90;99.90
26278;DHT22;14000;52.056;8.510;2022-10-26T05:02:09;8.20;99.90
26278;DHT22;14000;52.056;8.510;2022-10-26T05:04:35;7.20;99.90
26278;DHT22;14000;52.056;8.510;2022-10-26T05:07:01;7.30;99.90
26278;DHT22;14000;52.056;8.510;2022-10-26T05:09:26;7.20;99.90
26278;DHT22;14000;52.056;8.510;2022-10-26T05:11:52;7.30;99.90
26278;DHT22;14000;52.056;8.510;2022-10-26T05:14:17;7.30;99.90
26278;DHT22;14000;52.056;8.510;2022-10-26T05:16:43;7.30;99.90
26278;DHT22;14000;52.056;8.510;2022-10-26T05:19:09;7.40;99.90
26278;DHT22;14000;52.056;8.510;2022-10-26T05:21:35;8.00;99.90
26278;DHT22;14000;52.056;8.510;2022-10-26T05:24:00;7.40;99.90
26278;DHT22;14000;52.056;8.510;2022-10-26T05:26:27;7.40;99.90
26278;DHT22;14000;52.056;8.510;2022-10-26T05:28:52;7.40;99.90
26278;DHT22;14000;52.056;8.510;2022-10-26T05:31:18;7.70;99.90
26278;DHT22;14000;52.056;8.510;2022-10-26T05:33:48;7.40;99.90
26278;DHT22;14000;52.056;8.510;2022-10-26T05:36:15;7.40;99.90
26278;DHT22;14000;52.056;8.510;2022-10-26T05:38:41;7.40;99.90
26278;DHT22;14000;52.056;8.510;2022-10-26T05:41:06;7.40;99.90
26278;DHT22;14000;52.056;8.510;2022-10-26T05:43:32;7.90;99.90
26278;DHT22;14000;52.056;8.510;2022-10-26T05:45:58;7.50;99.90
26278;DHT22;14000;52.056;8.510;2022-10-26T05:48:23;8.50;99.90
26278;DHT22;14000;52.056;8.510;2022-10-26T05:50:49;7.50;99.90
26278;DHT22;14000;52.056;8.510;2022-10-26T05:53:14;7.60;99.90
26278;DHT22;14000;52.056;8.510;2022-10-26T05:55:40;7.50;99.90
26278;DHT22;14000;52.056;8.510;2022-10-26T05:58:11;7.60;99.90
26278;DHT22;14000;52.056;8.510;2022-10-26T06:03:42;7.70;99.90
26278;DHT22;14000;52.056;8.510;2022-10-26T06:06:11;7.70;99.90
26278;DHT22;14000;52.056;8.510;2022-10-26T06:08:38;7.70;99.90
26278;DHT22;14000;52.056;8.510;2022-10-26T06:11:04;7.70;99.90
26278;DHT22;14000;52.056;8.510;2022-10-26T06:13:31;7.80;99.90
26278;DHT22;14000;52.056;8.510;2022-10-26T06:16:09;7.80;99.90
26278;DHT22;14000;52.056;8.510;2022-10-26T06:18:42;7.90;99.90
26278;DHT22;14000;52.056;8.510;2022-10-26T06:21:28;7.90;99.90
26278;DHT22;14000;52.056;8.510;2022-10-26T06:24:08;8.00;99.90
26278;DHT22;14000;52.056;8.510;2022-10-26T06:26:52;7.90;99.90
26278;DHT22;14000;52.056;8.510;2022-10-26T06:29:57;8.00;99.90
26278;DHT22;14000;52.056;8.510;2022-10-26T06:32:23;8.10;99.90
26278;DHT22;14000;52.056;8.510;2022-10-26T06:34:52;8.10;99.90
26278;DHT22;14000;52.056;8.510;2022-10-26T06:37:21;8.10;99.90
26278;DHT22;14000;52.056;8.510;2022-10-26T06:39:48;8.50;99.90
26278;DHT22;14000;52.056;8.510;2022-10-26T06:42:14;8.20;99.90
26278;DHT22;14000;52.056;8.510;2022-10-26T06:44:40;8.20;99.90
26278;DHT22;14000;52.056;8.510;2022-10-26T06:47:12;8.20;99.90
26278;DHT22;14000;52.056;8.510;2022-10-26T06:52:27;8.30;99.90
26278;DHT22;14000;52.056;8.510;2022-10-26T06:54:54;8.30;99.90
26278;DHT22;14000;52.056;8.510;2022-10-26T06:57:30;8.30;99.90
26278;DHT22;14000;52.056;8.510;2022-10-26T07:00:26;8.30;99.90
26278;DHT22;14000;52.056;8.510;2022-10-26T07:02:52;8.40;99.90
26278;DHT22;14000;52.056;8.510;2022-10-26T07:05:18;8.50;99.90
26278;DHT22;14000;52.056;8.510;2022-10-26T07:07:47;8.50;99.90
26278;DHT22;14000;52.056;8.510;2022-10-26T07:10:13;8.50;99.90
26278;DHT22;14000;52.056;8.510;2022-10-26T07:12:40;8.70;99.90
26278;DHT22;14000;52.056;8.510;2022-10-26T07:15:06;8.70;99.90
26278;DHT22;14000;52.056;8.510;2022-10-26T07:17:42;8.80;99.90
26278;DHT22;14000;52.056;8.510;2022-10-26T07:20:09;9.30;99.90
26278;DHT22;14000;52.056;8.510;2022-10-26T07:22:35;8.90;99.90
26278;DHT22;14000;52.056;8.510;2022-10-26T07:25:01;9.00;99.90
26278;DHT22;14000;52.056;8.510;2022-10-26T07:27:27;9.00;99.90
26278;DHT22;14000;52.056;8.510;2022-10-26T07:29:53;9.10;99.90
26278;DHT22;14000;52.056;8.510;2022-10-26T07:32:18;9.20;99.90
26278;DHT22;14000;52.056;8.510;2022-10-26T07:34:44;9.30;99.90
26278;DHT22;14000;52.056;8.510;2022-10-26T07:37:09;9.50;99.90
26278;DHT22;14000;52.056;8.510;2022-10-26T07:39:35;9.50;99.90
26278;DHT22;14000;52.056;8.510;2022-10-26T07:42:00;10.20;99.90
26278;DHT22;14000;52.056;8.510;2022-10-26T07:44:26;9.70;99.90
26278;DHT22;14000;52.056;8.510;2022-10-26T07:46:52;9.80;99.90
26278;DHT22;14000;52.056;8.510;2022-10-26T07:49:17;9.70;99.90
26278;DHT22;14000;52.056;8.510;2022-10-26T07:51:43;9.70;99.90
26278;DHT22;14000;52.056;8.510;2022-10-26T07:54:09;9.80;99.90
26278;DHT22;14000;52.056;8.510;2022-10-26T07:56:34;9.80;99.90
26278;DHT22;14000;52.056;8.510;2022-10-26T07:59:00;9.90;99.90
26278;DHT22;14000;52.056;8.510;2022-10-26T08:01:25;10.70;99.90
26278;DHT22;14000;52.056;8.510;2022-10-26T08:03:52;10.00;99.90
26278;DHT22;14000;52.056;8.510;2022-10-26T08:06:18;10.90;99.90
26278;DHT22;14000;52.056;8.510;2022-10-26T08:08:44;10.10;99.90
26278;DHT22;14000;52.056;8.510;2022-10-26T08:11:11;10.20;99.90
26278;DHT22;14000;52.056;8.510;2022-10-26T08:13:37;10.80;99.90
26278;DHT22;14000;52.056;8.510;2022-10-26T08:16:04;10.40;99.90
26278;DHT22;14000;52.056;8.510;2022-10-26T08:18:30;10.40;99.90
26278;DHT22;14000;52.056;8.510;2022-10-26T08:21:01;10.40;99.90
26278;DHT22;14000;52.056;8.510;2022-10-26T08:23:27;10.50;99.90
26278;DHT22;14000;52.056;8.510;2022-10-26T08:26:00;10.70;99.90
26278;DHT22;14000;52.056;8.510;2022-10-26T08:28:26;10.70;99.90
26278;DHT22;14000;52.056;8.510;2022-10-26T08:30:52;10.70;99.90
26278;DHT22;14000;52.056;8.510;2022-10-26T08:33:18;10.80;99.90
26278;DHT22;14000;52.056;8.510;2022-10-26T08:35:43;10.80;99.90
26278;DHT22;14000;52.056;8.510;2022-10-26T08:38:09;10.90;99.90
26278;DHT22;14000;52.056;8.510;2022-10-26T08:40:41;11.00;99.90
26278;DHT22;14000;52.056;8.510;2022-10-26T08:43:15;11.10;99.90
26278;DHT22;14000;52.056;8.510;2022-10-26T08:45:50;11.20;99.90
26278;DHT22;14000;52.056;8.510;2022-10-26T08:48:20;11.60;99.90
26278;DHT22;14000;52.056;8.510;2022-10-26T08:50:54;11.40;99.90
26278;DHT22;14000;52.056;8.510;2022-10-26T08:56:22;11.60;99.90
26278;DHT22;14000;52.056;8.510;2022-10-26T08:59:05;11.70;99.90
26278;DHT22;14000;52.056;8.510;2022-10-26T09:01:34;11.80;99.90
26278;DHT22;14000;52.056;8.510;2022-10-26T09:04:02;11.90;99.90
26278;DHT22;14000;52.056;8.510;2022-10-26T09:06:38;11.90;99.90
26278;DHT22;14000;52.056;8.510;2022-10-26T09:09:20;12.00;99.90
26278;DHT22;14000;52.056;8.510;2022-10-26T09:11:51;12.00;99.90
26278;DHT22;14000;52.056;8.510;2022-10-26T09:14:46;12.10;99.90
26278;DHT22;14000;52.056;8.510;2022-10-26T09:17:41;12.20;99.90
26278;DHT22;14000;52.056;8.510;2022-10-26T09:29:12;12.80;99.90
26278;DHT22;14000;52.056;8.510;2022-10-26T09:31:44;13.00;99.90
26278;DHT22;14000;52.056;8.510;2022-10-26T09:34:21;13.10;99.90
26278;DHT22;14000;52.056;8.510;2022-10-26T09:36:52;13.20;99.90
26278;DHT22;14000;52.056;8.510;2022-10-26T09:39:39;13.20;99.90
26278;DHT22;14000;52.056;8.510;2022-10-26T09:42:27;13.30;99.90
26278;DHT22;14000;52.056;8.510;2022-10-26T09:45:04;13.30;99.90
26278;DHT22;14000;52.056;8.510;2022-10-26T09:47:38;13.50;99.90
26278;DHT22;14000;52.056;8.510;2022-10-26T09:50:13;13.60;99.90
26278;DHT22;14000;52.056;8.510;2022-10-26T09:52:40;13.80;99.90
26278;DHT22;14000;52.056;8.510;2022-10-26T09:55:10;13.90;99.90
26278;DHT22;14000;52.056;8.510;2022-10-26T09:57:35;14.00;99.90
26278;DHT22;14000;52.056;8.510;2022-10-26T10:00:03;14.10;99.90
26278;DHT22;14000;52.056;8.510;2022-10-26T10:02:33;14.20;99.90
26278;DHT22;14000;52.056;8.510;2022-10-26T10:04:59;14.20;99.90
26278;DHT22;14000;52.056;8.510;2022-10-26T10:07:24;14.40;99.90
26278;DHT22;14000;52.056;8.510;2022-10-26T10:10:15;14.50;99.90
26278;DHT22;14000;52.056;8.510;2022-10-26T10:12:40;14.50;99.90
26278;DHT22;14000;52.056;8.510;2022-10-26T10:15:25;14.60;99.90
26278;DHT22;14000;52.056;8.510;2022-10-26T10:17:52;14.70;99.90
26278;DHT22;14000;52.056;8.510;2022-10-26T10:20:48;14.90;99.90
26278;DHT22;14000;52.056;8.510;2022-10-26T10:23:27;15.10;99.90
26278;DHT22;14000;52.056;8.510;2022-10-26T10:26:08;15.20;99.90
26278;DHT22;14000;52.056;8.510;2022-10-26T10:28:36;15.30;99.90
26278;DHT22;14000;52.056;8.510;2022-10-26T10:31:18;15.30;99.90
26278;DHT22;14000;52.056;8.510;2022-10-26T10:33:44;15.40;99.90
26278;DHT22;14000;52.056;8.510;2022-10-26T10:36:15;15.30;99.90
26278;DHT22;14000;52.056;8.510;2022-10-26T10:38:44;15.40;99.90
26278;DHT22;14000;52.056;8.510;2022-10-26T10:41:31;15.40;99.90
26278;DHT22;14000;52.056;8.510;2022-10-26T10:44:16;15.70;99.90
26278;DHT22;14000;52.056;8.510;2022-10-26T10:46:43;15.80;99.90
26278;DHT22;14000;52.056;8.510;2022-10-26T10:49:19;15.90;99.90
26278;DHT22;14000;52.056;8.510;2022-10-26T10:51:45;15.90;99.90
26278;DHT22;14000;52.056;8.510;2022-10-26T10:54:24;16.00;99.90
26278;DHT22;14000;52.056;8.510;2022-10-26T10:57:24;16.00;99.90
26278;DHT22;14000;52.056;8.510;2022-10-26T11:00:07;16.10;99.90
26278;DHT22;14000;52.056;8.510;2022-10-26T11:10:50;16.40;99.90
26278;DHT22;14000;52.056;8.510;2022-10-26T11:13:39;16.50;99.90
26278;DHT22;14000;52.056;8.510;2022-10-26T11:16:34;16.70;99.90
26278;DHT22;14000;52.056;8.510;2022-10-26T11:21:47;20.20;99.90
26278;DHT22;14000;52.056;8.510;2022-10-26T11:24:24;22.50;99.90
26278;DHT22;14000;52.056;8.510;2022-10-26T11:27:03;24.40;99.90
26278;DHT22;14000;52.056;8.510;2022-10-26T11:32:23;27.70;99.90
26278;DHT22;14000;52.056;8.510;2022-10-26T11:34:57;29.10;99.90
26278;DHT22;14000;52.056;8.510;2022-10-26T11:45:41;29.50;99.90
26278;DHT22;14000;52.056;8.510;2022-10-26T11:50:42;27.70;99.90
26278;DHT22;14000;52.056;8.510;2022-10-26T11:53:17;26.60;99.90
26278;DHT22;14000;52.056;8.510;2022-10-26T11:55:53;25.90;99.90
26278;DHT22;14000;52.056;8.510;2022-10-26T11:58:25;25.20;99.90
26278;DHT22;14000;52.056;8.510;2022-10-26T12:00:59;23.90;99.90
26278;DHT22;14000;52.056;8.510;2022-10-26T12:03:32;23.60;99.90
26278;DHT22;14000;52.056;8.510;2022-10-26T12:05:59;23.20;99.90
26278;DHT22;14000;52.056;8.510;2022-10-26T12:08:39;22.80;99.90
26278;DHT22;14000;52.056;8.510;2022-10-26T12:11:11;22.60;99.90
26278;DHT22;14000;52.056;8.510;2022-10-26T12:13:53;22.50;99.90
26278;DHT22;14000;52.056;8.510;2022-10-26T12:16:34;22.20;99.90
26278;DHT22;14000;52.056;8.510;2022-10-26T12:19:28;21.90;99.90
26278;DHT22;14000;52.056;8.510;2022-10-26T12:21:52;21.70;99.90
26278;DHT22;14000;52.056;8.510;2022-10-26T12:26:59;21.40;99.90
26278;DHT22;14000;52.056;8.510;2022-10-26T12:31:58;21.10;99.90
26278;DHT22;14000;52.056;8.510;2022-10-26T12:37:21;20.70;99.90
26278;DHT22;14000;52.056;8.510;2022-10-26T12:39:46;20.60;99.90
26278;DHT22;14000;52.056;8.510;2022-10-26T12:52:55;20.60;99.90
26278;DHT22;14000;52.056;8.510;2022-10-26T12:58:40;20.90;99.90
26278;DHT22;14000;52.056;8.510;2022-10-26T13:01:46;21.00;99.90
26278;DHT22;14000;52.056;8.510;2022-10-26T13:04:40;21.10;99.90
26278;DHT22;14000;52.056;8.510;2022-10-26T13:07:22;21.20;99.90
26278;DHT22;14000;52.056;8.510;2022-10-26T13:12:45;21.50;99.90
26278;DHT22;14000;52.056;8.510;2022-10-26T13:15:26;21.60;99.90
26278;DHT22;14000;52.056;8.510;2022-10-26T13:18:12;21.80;99.90
26278;DHT22;14000;52.056;8.510;2022-10-26T13:21:05;21.80;99.90
26278;DHT22;14000;52.056;8.510;2022-10-26T13:23:34;22.00;99.90
26278;DHT22;14000;52.056;8.510;2022-10-26T13:26:14;21.90;99.90
26278;DHT22;14000;52.056;8.510;2022-10-26T13:33:59;22.10;99.90
26278;DHT22;14000;52.056;8.510;2022-10-26T13:36:55;22.10;99.90
26278;DHT22;14000;52.056;8.510;2022-10-26T13:39:34;22.20;99.90
26278;DHT22;14000;52.056;8.510;2022-10-26T13:42:02;22.30;99.90
26278;DHT22;14000;52.056;8.510;2022-10-26T13:44:54;22.30;99.90
26278;DHT22;14000;52.056;8.510;2022-10-26T13:50:04;22.40;99.90
26278;DHT22;14000;52.056;8.510;2022-10-26T13:52:34;22.50;99.90
26278;DHT22;14000;52.056;8.510;2022-10-26T13:55:20;22.50;99.90
26278;DHT22;14000;52.056;8.510;2022-10-26T13:58:22;22.50;99.90
26278;DHT22;14000;52.056;8.510;2022-10-26T14:01:17;22.80;99.90
26278;DHT22;14000;52.056;8.510;2022-10-26T14:03:46;22.70;99.90
26278;DHT22;14000;52.056;8.510;2022-10-26T14:06:35;22.50;99.90
26278;DHT22;14000;52.056;8.510;2022-10-26T14:09:15;22.30;99.90
26278;DHT22;14000;52.056;8.510;2022-10-26T14:12:00;22.20;99.90
26278;DHT22;14000;52.056;8.510;2022-10-26T14:14:35;22.20;99.90
26278;DHT22;14000;52.056;8.510;2022-10-26T14:17:02;22.20;99.90
26278;DHT22;14000;52.056;8.510;2022-10-26T14:19:29;22.20;99.90
26278;DHT22;14000;52.056;8.510;2022-10-26T14:21:55;22.00;99.90
26278;DHT22;14000;52.056;8.510;2022-10-26T14:24:26;21.90;99.90
26278;DHT22;14000;52.056;8.510;2022-10-26T14:26:51;21.60;99.90
26278;DHT22;14000;52.056;8.510;2022-10-26T14:29:19;21.60;99.90
26278;DHT22;14000;52.056;8.510;2022-10-26T14:31:45;21.70;99.90
26278;DHT22;14000;52.056;8.510;2022-10-26T14:34:11;21.60;99.90
26278;DHT22;14000;52.056;8.510;2022-10-26T14:39:34;21.60;99.90
26278;DHT22;14000;52.056;8.510;2022-10-26T14:44:49;21.30;99.90
26278;DHT22;14000;52.056;8.510;2022-10-26T14:47:47;21.20;99.90
26278;DHT22;14000;52.056;8.510;2022-10-26T14:50:18;21.10;99.90
26278;DHT22;14000;52.056;8.510;2022-10-26T14:52:51;21.00;99.90
26278;DHT22;14000;52.056;8.510;2022-10-26T14:55:19;20.90;99.90
26278;DHT22;14000;52.056;8.510;2022-10-26T14:57:46;20.90;99.90
26278;DHT22;14000;52.056;8.510;2022-10-26T15:00:18;20.70;99.90
26278;DHT22;14000;52.056;8.510;2022-10-26T15:02:49;20.70;99.90
26278;DHT22;14000;52.056;8.510;2022-10-26T15:07:47;20.60;99.90
26278;DHT22;14000;52.056;8.510;2022-10-26T15:13:22;20.40;99.90
26278;DHT22;14000;52.056;8.510;2022-10-26T15:15:51;20.30;99.90
26278;DHT22;14000;52.056;8.510;2022-10-26T15:18:27;20.20;99.90
26278;DHT22;14000;52.056;8.510;2022-10-26T15:20:54;20.00;99.90
26278;DHT22;14000;52.056;8.510;2022-10-26T15:23:22;20.00;99.90
26278;DHT22;14000;52.056;8.510;2022-10-26T15:25:56;19.90;99.90
26278;DHT22;14000;52.056;8.510;2022-10-26T15:28:28;19.80;99.90
26278;DHT22;14000;52.056;8.510;2022-10-26T15:36:17;19.50;99.90
26278;DHT22;14000;52.056;8.510;2022-10-26T15:38:44;19.50;99.90
26278;DHT22;14000;52.056;8.510;2022-10-26T15:43:56;19.30;99.90
26278;DHT22;14000;52.056;8.510;2022-10-26T15:46:24;19.20;99.90
26278;DHT22;14000;52.056;8.510;2022-10-26T15:49:02;19.10;99.90
26278;DHT22;14000;52.056;8.510;2022-10-26T15:51:28;19.10;99.90
26278;DHT22;14000;52.056;8.510;2022-10-26T15:53:57;19.10;99.90
26278;DHT22;14000;52.056;8.510;2022-10-26T15:56:24;19.00;99.90
26278;DHT22;14000;52.056;8.510;2022-10-26T15:58:50;18.90;99.90
26278;DHT22;14000;52.056;8.510;2022-10-26T16:01:18;18.90;99.90
26278;DHT22;14000;52.056;8.510;2022-10-26T16:03:44;18.80;99.90
26278;DHT22;14000;52.056;8.510;2022-10-26T16:06:17;18.70;99.90
26278;DHT22;14000;52.056;8.510;2022-10-26T16:08:49;18.60;99.90
26278;DHT22;14000;52.056;8.510;2022-10-26T16:11:15;18.50;99.90
26278;DHT22;14000;52.056;8.510;2022-10-26T16:13:40;18.40;99.90
26278;DHT22;14000;52.056;8.510;2022-10-26T16:16:15;18.40;99.90
26278;DHT22;14000;52.056;8.510;2022-10-26T16:18:41;18.40;99.90
26278;DHT22;14000;52.056;8.510;2022-10-26T16:21:11;18.30;99.90
26278;DHT22;14000;52.056;8.510;2022-10-26T16:23:37;18.20;99.90
26278;DHT22;14000;52.056;8.510;2022-10-26T16:26:03;18.10;99.90
26278;DHT22;14000;52.056;8.510;2022-10-26T16:28:29;18.10;99.90
26278;DHT22;14000;52.056;8.510;2022-10-26T16:31:09;18.10;99.90
26278;DHT22;14000;52.056;8.510;2022-10-26T16:33:35;18.00;99.90
26278;DHT22;14000;52.056;8.510;2022-10-26T16:36:01;18.00;99.90
26278;DHT22;14000;52.056;8.510;2022-10-26T16:38:26;17.90;99.90
26278;DHT22;14000;52.056;8.510;2022-10-26T16:41:16;17.90;99.90
26278;DHT22;14000;52.056;8.510;2022-10-26T16:43:43;17.90;99.90
26278;DHT22;14000;52.056;8.510;2022-10-26T16:46:14;17.90;99.90
26278;DHT22;14000;52.056;8.510;2022-10-26T16:48:44;17.90;99.90
26278;DHT22;14000;52.056;8.510;2022-10-26T16:51:24;17.80;99.90
26278;DHT22;14000;52.056;8.510;2022-10-26T16:53:54;17.80;99.90
26278;DHT22;14000;52.056;8.510;2022-10-26T16:56:25;17.80;99.90
26278;DHT22;14000;52.056;8.510;2022-10-26T16:58:51;17.80;99.90
26278;DHT22;14000;52.056;8.510;2022-10-26T17:01:18;17.80;99.90
26278;DHT22;14000;52.056;8.510;2022-10-26T17:03:46;17.70;99.90
26278;DHT22;14000;52.056;8.510;2022-10-26T17:06:12;17.70;99.90
26278;DHT22;14000;52.056;8.510;2022-10-26T17:08:38;17.60;99.90
26278;DHT22;14000;52.056;8.510;2022-10-26T17:11:12;17.60;99.90
26278;DHT22;14000;52.056;8.510;2022-10-26T17:13:39;17.50;99.90
26278;DHT22;14000;52.056;8.510;2022-10-26T17:16:07;17.50;99.90
26278;DHT22;14000;52.056;8.510;2022-10-26T17:18:34;17.40;99.90
26278;DHT22;14000;52.056;8.510;2022-10-26T17:20:59;17.30;99.90
26278;DHT22;14000;52.056;8.510;2022-10-26T17:23:25;17.20;99.90
26278;DHT22;14000;52.056;8.510;2022-10-26T17:25:51;17.10;99.90
26278;DHT22;14000;52.056;8.510;2022-10-26T17:28:16;17.00;99.90
26278;DHT22;14000;52.056;8.510;2022-10-26T17:30:42;16.90;99.90
26278;DHT22;14000;52.056;8.510;2022-10-26T17:33:10;16.70;99.90
26278;DHT22;14000;52.056;8.510;2022-10-26T17:35:36;16.70;99.90
26278;DHT22;14000;52.056;8.510;2022-10-26T17:38:01;16.60;99.90
26278;DHT22;14000;52.056;8.510;2022-10-26T17:40:27;16.50;99.90
26278;DHT22;14000;52.056;8.510;2022-10-26T17:42:53;16.40;99.90
26278;DHT22;14000;52.056;8.510;2022-10-26T17:45:18;16.40;99.90
26278;DHT22;14000;52.056;8.510;2022-10-26T17:47:44;16.40;99.90
26278;DHT22;14000;52.056;8.510;2022-10-26T17:50:10;16.50;99.90
26278;DHT22;14000;52.056;8.510;2022-10-26T17:52:35;16.50;99.90
26278;DHT22;14000;52.056;8.510;2022-10-26T17:55:01;16.60;99.90
26278;DHT22;14000;52.056;8.510;2022-10-26T17:57:27;16.60;99.90
26278;DHT22;14000;52.056;8.510;2022-10-26T17:59:52;16.70;99.90